Latest Coastal Weather Observations for Mornington Island Airport

IDQ60701

Issued at 10:12 pm EST Friday 27 May 2016 (issued every 10 minutes, with the page automatically refreshed every 10 minutes)

About coastal observations | Map of coastal stations | Coastal observations for QLD | Marine services | Other Formats
Station Details ID: 029182 Name: MORNINGTON ISLAND AIRPORT Lat: -16.66 Lon: 139.17 Height: 9.0 m
Data from the previous 72 hours. | See also: Recent months at Mornington Island Airport
Date/Time
EST
Temp

°C
Wind Pressure Rain
since 9am
mm
Weather Cloud Vis
km
Sea
Height
m
Swell
Dir
 
Speed
knots
Gust
knots
hPa Trend Height
m
Period
s
Dir
27/10:00pm 25.7 NE 4 5 1013.5 - 0.2 - - - - - - -
27/09:30pm 25.9 NE 4 5 1013.4 - 0.2 - - - - - - -
27/09:00pm 26.1 NE 3 4 1013.2 - 0.2 - - - - - - -
27/08:30pm 26.2 NE 3 4 1013.2 - 0.2 - - - - - - -
27/08:00pm 26.3 NE 4 5 1012.9 - 0.2 - - - - - - -
27/07:30pm 26.5 NE 3 7 1013.0 - 0.2 - - - - - - -
27/07:00pm 26.8 CALM 0 0 1013.0 - 0.2 - - - - - - -
27/06:30pm 27.0 NE 3 4 1012.9 - 0.2 - - - - - - -
27/06:00pm 27.3 NNE 5 7 1012.7 - 0.2 - - - - - - -
27/05:30pm 27.7 N 4 6 1012.6 - 0.2 - - - - - - -
27/05:00pm 27.3 NNW 5 6 1012.5 - 0.2 - - - - - - -
27/04:30pm 27.4 WNW 5 6 1012.5 - 0.2 - - - - - - -
27/04:00pm 27.9 WNW 6 8 1012.2 - 0.2 - - - - - - -
27/03:30pm 28.3 WNW 6 8 1012.0 - 0.2 - - - - - - -
27/03:00pm 27.9 WNW 6 8 1012.1 - 0.2 - - - - - - -
27/02:30pm 28.0 W 6 8 1012.3 - 0.2 - - - - - - -
27/02:00pm 28.0 W 6 7 1012.7 - 0.2 - - - - - - -
27/01:30pm 27.8 W 5 8 1013.2 - 0.2 - - - - - - -
27/01:00pm 28.0 WSW 6 8 1013.6 - 0.2 - - - - - - -
27/12:30pm 28.4 W 5 6 1014.0 - 0.2 - - - - - - -
27/12:00pm 28.2 WNW 5 7 1014.3 - 0.2 - - - - - - -
27/11:30am 28.4 SW 5 6 1014.7 - 0.2 - - - - - - -
27/11:00am 28.2 W 5 6 1015.1 - 0.2 - - - - - - -
27/10:30am 28.1 WSW 3 5 1015.4 - 0.0 - - - - - - -
27/10:00am 27.3 WSW 3 5 1015.4 - 0.0 - - - - - - -
27/09:30am 26.6 WSW 3 4 1015.2 - 0.0 - - - - - - -
27/09:00am 26.0 CALM 0 0 1015.0 - 0.2 - - - - - - -
27/08:30am 25.8 CALM 0 0 1014.8 - 0.2 - - - - - - -
27/08:00am 23.1 CALM 0 0 1014.4 - 0.2 - - - - - - -
27/07:30am 22.9 CALM 0 0 1013.9 - 0.2 - - - - - - -
27/07:00am 22.8 CALM 0 0 1013.6 - 0.2 - - - - - - -
27/06:30am 23.7 SW 3 4 1013.2 - 0.2 - - - - - - -
27/06:00am 24.2 SW 4 5 1013.1 - 0.2 - - - - - - -
27/05:30am 24.5 SSW 3 4 1013.2 - 0.2 - - - - - - -
27/05:00am 24.1 NW 3 4 1013.1 - 0.2 - - - - - - -
27/04:30am 23.7 NW 3 4 1013.0 - 0.2 - - - - - - -
27/04:00am 22.9 NW 1 3 1013.0 - 0.2 - - - - - - -
27/03:30am 23.0 NW 3 4 1013.1 - 0.2 - - - - - - -
27/03:00am 23.1 CALM 0 0 1013.2 - 0.2 - - - - - - -
27/02:30am 23.5 CALM 0 0 1013.2 - 0.2 - - - - - - -
27/02:00am 23.3 CALM 0 0 1013.2 - 0.2 - - - - - - -
27/01:30am 24.4 NW 3 4 1013.4 - 0.2 - - - - - - -
27/01:00am 24.0 NW 4 5 1013.3 - 0.2 - - - - - - -
27/12:30am 24.2 N 4 5 1013.2 - 0.2 - - - - - - -
27/12:00am 23.3 N 3 4 1013.0 - 0.2 - - - - - - -
 
Date/Time
EST
Temp

°C
Wind Pressure Rain
since 9am
mm
Weather Cloud Vis
km
Sea
Height
m
Swell
Dir
 
Speed
knots
Gust
knots
hPa Trend Height
m
Period
s
Dir
26/11:30pm 24.0 N 5 6 1013.2 - 0.2 - - - - - - -
26/11:00pm 23.9 NNE 5 6 1013.3 - 0.2 - - - - - - -
26/10:30pm 23.7 NE 4 5 1013.4 - 0.2 - - - - - - -
26/10:00pm 24.0 NE 3 3 1013.4 - 0.2 - - - - - - -
26/09:30pm 24.3 NE 4 4 1013.4 - 0.2 - - - - - - -
26/09:00pm 24.5 NNE 5 6 1013.3 - 0.2 - - - - - - -
26/08:30pm 24.6 NNE 4 6 1013.4 - 0.2 - - - - - - -
26/08:00pm 25.0 NNE 5 6 1013.2 - 0.2 - - - - - - -
26/07:30pm 25.2 NE 5 7 1012.7 - 0.2 - - - - - - -
26/07:00pm 25.7 NNE 5 8 1012.4 - 0.2 - - - - - - -
26/06:30pm 26.2 NE 6 7 1012.2 - 0.2 - - - - - - -
26/06:00pm 27.4 NE 6 9 1012.3 - 0.2 - - - - - - -
26/05:30pm 28.2 ENE 9 12 1012.1 - 0.2 - - - - - - -
26/05:00pm 28.8 ENE 8 12 1012.2 - 0.2 - - - - - - -
26/04:30pm 30.1 ENE 7 14 1011.9 - 0.2 - - - - - - -
26/04:00pm 29.9 ENE 7 11 1011.9 - 0.2 - - - - - - -
26/03:30pm 28.9 ENE 7 9 1012.0 - 0.2 - - - - - - -
26/03:00pm 28.4 ESE 8 10 1012.2 - 0.2 - - - - - - -
26/02:30pm 28.8 ESE 7 10 1012.4 - 0.2 - - - - - - -
26/02:00pm 28.1 E 11 15 1012.9 - 0.2 - - - - - - -
26/01:30pm 29.1 SE 8 11 1013.2 - 0.2 - - - - - - -
26/01:00pm 28.0 SE 7 11 1013.6 - 0.2 - - - - - - -
26/12:30pm 27.4 SSE 6 9 1014.2 - 0.2 - - - - - - -
26/12:00pm 27.7 SSE 6 9 1014.5 - 0.2 - - - - - - -
26/11:30am 27.5 SE 7 9 1014.8 - 0.2 - - - - - - -
26/11:00am 28.2 SE 7 10 1015.0 - 0.2 - - - - - - -
26/10:30am 27.4 SE 8 11 1015.1 - 0.2 - - - - - - -
26/10:00am 28.3 E 7 10 1015.0 - 0.2 - - - - - - -
26/09:30am 27.4 E 7 9 1014.9 - 0.2 - - - - - - -
26/09:00am 26.5 E 7 9 1014.6 - 49.0 - - - - - - -
26/08:30am 25.0 E 8 10 1014.3 - 49.0 - - - - - - -
26/08:00am 24.3 ENE 7 8 1013.8 - 49.0 - - - - - - -
26/07:30am 23.3 ENE 7 8 1013.6 - 49.0 - - - - - - -
26/07:00am 23.2 ENE 6 7 1013.4 - 49.0 - - - - - - -
26/06:30am 23.1 ENE 5 6 1013.1 - 49.0 - - - - - - -
26/06:00am 23.3 ENE 6 7 1012.8 - 49.0 - - - - - - -
26/05:30am 23.3 E 6 7 1012.7 - 49.0 - - - - - - -
26/05:00am 23.5 E 6 7 1012.5 - 49.0 - - - - - - -
26/04:30am 23.6 E 6 7 1012.5 - 49.0 - - - - - - -
26/04:00am 23.4 E 4 5 1012.3 - 49.0 - - - - - - -
26/03:30am 23.5 ESE 6 7 1012.4 - 49.0 - - - - - - -
26/03:00am 23.7 E 6 7 1012.4 - 49.0 - - - - - - -
26/02:30am 23.9 ESE 6 7 1012.5 - 49.0 - - - - - - -
26/02:00am 24.2 SE 6 8 1012.8 - 49.0 - - - - - - -
26/01:30am 24.2 SE 7 8 1013.2 - 49.0 - - - - - - -
26/01:00am 23.8 ESE 6 8 1013.3 - 49.0 - - - - - - -
26/12:30am 24.0 CALM 0 2 1013.1 - 49.0 - - - - - - -
26/12:00am 24.0 NNE 6 11 1013.6 - 49.0 Rain - - - - - -
 
Date/Time
EST
Temp

°C
Wind Pressure Rain
since 9am
mm
Weather Cloud Vis
km
Sea
Height
m
Swell
Dir
 
Speed
knots
Gust
knots
hPa Trend Height
m
Period
s
Dir
25/11:30pm 24.0 ENE 6 8 1013.6 - 48.4 - - - - - - -
25/11:00pm 24.2 NNE 6 7 1013.7 - 48.4 - - - - - - -
25/10:30pm 24.1 NNE 8 14 1013.7 - 48.4 - - - - - - -
25/10:00pm 24.3 NE 7 11 1013.9 - 48.2 - - - - - - -
25/09:30pm 24.1 N 7 14 1013.7 - 48.2 - - - - - - -
25/09:00pm 24.7 ESE 5 7 1013.0 - 47.4 - - - - - - -
25/08:30pm 24.7 SE 3 4 1013.0 - 47.4 - - - - - - -
25/08:00pm 24.4 S 4 6 1012.5 - 47.4 - - - - - - -
25/07:30pm 24.5 SSW 4 5 1012.4 - 47.4 - - - - - - -
25/07:00pm 24.5 SSW 4 5 1012.0 - 47.4 - - - - - - -
25/06:30pm 24.3 CALM 0 0 1012.1 - 47.4 - - - - - - -
25/06:00pm 24.2 S 4 5 1011.7 - 47.2 Rain - - - - - -
25/05:30pm 24.0 SSW 6 8 1011.5 - 46.8 - - - - - - -
25/05:00pm 23.8 WSW 7 10 1011.5 - 45.6 - - - - - - -
25/04:30pm 23.5 NW 11 15 1011.5 - 40.8 - - - - - - -
25/04:00pm 24.9 SSE 6 8 1011.0 - 26.0 - - - - - - -
25/03:30pm 24.7 SSE 7 10 1011.2 - 26.0 - - - - - - -
25/03:00pm 24.6 SSE 7 11 1011.3 - 24.6 Rain - - - - - -
25/02:30pm 24.8 NE 6 10 1011.6 - 19.4 - - - - - - -
25/02:00pm 24.8 ENE 9 11 1012.0 - 17.2 - - - - - - -
25/01:30pm 25.9 SSE 7 11 1012.2 - 0.4 - - - - - - -
25/01:00pm 26.7 SSE 8 11 1012.5 - 0.2 - - - - - - -
25/12:30pm 26.9 SE 7 11 1012.9 - 0.2 - - - - - - -
25/12:00pm 26.4 ESE 11 16 1013.3 - 0.2 Rain - - - - - -
25/11:30am 27.2 SE 6 8 1013.6 - 0.0 - - - - - - -
25/11:00am 27.2 E 6 10 1013.8 - 0.0 - - - - - - -
25/10:30am 26.1 ESE 5 6 1014.1 - 0.0 - - - - - - -
25/10:00am 26.1 SE 6 8 1014.2 - 0.0 - - - - - - -
25/09:30am 25.0 SE 6 8 1014.2 - 0.0 - - - - - - -
25/09:00am 24.5 SE 7 9 1014.1 - 13.6 - - - - - - -
25/08:30am 24.5 SE 6 9 1013.8 - 13.6 - - - - - - -
25/08:00am 24.2 SE 6 9 1013.6 - 13.6 - - - - - - -
25/07:30am 23.9 SE 6 8 1013.3 - 13.6 - - - - - - -
25/07:00am 23.9 SE 7 10 1012.9 - 13.6 - - - - - - -
25/06:30am 23.4 SSE 5 7 1012.9 - 13.6 - - - - - - -
25/06:00am 23.2 SSE 5 8 1012.5 - 13.6 - - - - - - -
25/05:30am 23.0 SSE 5 8 1012.1 - 13.6 - - - - - - -
25/05:00am 22.7 SSE 4 5 1012.1 - 13.6 - - - - - - -
25/04:30am 22.7 S 5 8 1012.3 - 13.6 - - - - - - -
25/04:00am 23.2 S 5 7 1012.3 - 13.6 - - - - - - -
25/03:30am 23.8 S 4 6 1012.8 - 13.6 - - - - - - -
25/03:00am 23.8 S 4 5 1013.0 - 13.6 - - - - - - -
25/02:30am 23.5 SSE 3 4 1013.1 - 13.6 - - - - - - -
25/02:00am 23.5 SSE 4 6 1013.1 - 13.6 - - - - - - -
25/01:30am 23.6 SE 5 8 1013.3 - 13.6 - - - - - - -
25/01:00am 23.7 SE 6 9 1013.5 - 13.6 - - - - - - -
25/12:30am 23.7 SE 7 9 1013.7 - 13.6 - - - - - - -
25/12:00am 23.9 SE 8 11 1013.8 - 13.6 - - - - - - -
 
Date/Time
EST
Temp

°C
Wind Pressure Rain
since 9am
mm
Weather Cloud Vis
km
Sea
Height
m
Swell
Dir
 
Speed
knots
Gust
knots
hPa Trend Height
m
Period
s
Dir
24/11:30pm 23.9 SE 8 11 1013.9 - 13.6 - - - - - - -
24/11:00pm 23.9 SE 9 13 1013.9 - 13.6 - - - - - - -
24/10:30pm 23.9 SE 9 13 1014.1 - 13.6 - - - - - - -

Other Formats:

Comma delimited format used in spreadsheet applications
http://www.bom.gov.au/fwo/IDQ60701/IDQ60701.94254.axf

JavaScript Object Notation format (JSON) in row-major order
http://www.bom.gov.au/fwo/IDQ60701/IDQ60701.94254.json